createdAt,value
2022-08-10T00:09:23.218Z,962.29
2022-08-10T00:24:25.449Z,962.64
2022-08-10T00:39:27.758Z,961.81
2022-08-10T00:54:30.013Z,961.61
2022-08-10T01:09:32.223Z,961.62
2022-08-10T01:24:34.449Z,961.48
2022-08-10T01:39:36.736Z,961.31
2022-08-10T01:54:39.137Z,961.39
2022-08-10T02:09:41.358Z,961.42
2022-08-10T02:24:43.558Z,961.46
2022-08-10T02:39:45.803Z,961.51
2022-08-10T02:54:48.153Z,961.41
2022-08-10T03:09:50.653Z,961.46
2022-08-10T03:24:53.152Z,961.48
2022-08-10T03:39:55.519Z,961.81
2022-08-10T03:54:57.916Z,961.76
2022-08-10T04:10:00.193Z,961.78
2022-08-10T04:25:02.761Z,961.94
2022-08-10T04:40:05.507Z,961.98
2022-08-10T04:55:28.008Z,962.02
2022-08-10T05:10:30.302Z,962.27
2022-08-10T05:25:33.000Z,962.5
2022-08-10T05:40:40.611Z,962.53
2022-08-10T05:55:44.736Z,962.59
2022-08-10T06:12:28.589Z,962.66
2022-08-10T06:27:34.224Z,962.78
2022-08-10T06:42:37.398Z,962.83
2022-08-10T06:57:39.808Z,962.81
2022-08-10T07:12:42.040Z,962.76
2022-08-10T07:27:59.597Z,962.85
2022-08-10T07:43:04.011Z,962.88
2022-08-10T07:58:06.352Z,962.92
2022-08-10T08:13:08.670Z,962.98
2022-08-10T08:28:12.014Z,962.9
2022-08-10T08:43:14.297Z,962.9
2022-08-10T08:58:18.391Z,962.82
2022-08-10T09:13:20.713Z,962.86
2022-08-10T09:28:26.695Z,963.15
2022-08-10T09:43:29.724Z,963.35
2022-08-10T09:58:32.038Z,963.21
2022-08-10T10:14:01.586Z,963.38
2022-08-10T10:29:30.722Z,963.3
2022-08-10T10:44:46.992Z,963.25
2022-08-10T10:59:55.391Z,963.3
2022-08-10T11:14:59.089Z,963.37
2022-08-10T11:30:03.263Z,963.41
2022-08-10T11:45:05.595Z,963.51
2022-08-10T12:00:07.901Z,963.65
2022-08-10T12:15:10.234Z,963.7
2022-08-10T12:30:12.536Z,963.91
2022-08-10T12:45:14.999Z,964.22
2022-08-10T13:00:17.877Z,964.32
2022-08-10T13:15:45.732Z,964.4
2022-08-10T13:30:52.685Z,964.76
2022-08-10T13:45:54.991Z,965.08
2022-08-10T14:00:57.399Z,965.2
2022-08-10T14:15:59.851Z,964.99
2022-08-10T14:31:02.169Z,965.13
2022-08-10T14:46:05.685Z,965.09
2022-08-10T15:01:08.349Z,964.89
2022-08-10T15:16:13.095Z,964.63
2022-08-10T15:31:15.875Z,964.74
2022-08-10T15:46:18.129Z,964.59
2022-08-10T16:02:04.513Z,964.38
2022-08-10T16:17:18.822Z,964.35
2022-08-10T16:32:21.025Z,964.53
2022-08-10T16:47:27.279Z,964.79
2022-08-10T17:02:29.791Z,964.75
2022-08-10T17:17:35.080Z,964.56
2022-08-10T17:32:44.130Z,964.7
2022-08-10T17:47:47.165Z,964.8
2022-08-10T18:02:49.671Z,964.76
2022-08-10T18:17:54.325Z,964.98
2022-08-10T18:33:00.961Z,964.93
2022-08-10T18:48:03.233Z,964.98
2022-08-10T19:03:05.466Z,964.82
2022-08-10T19:18:08.014Z,964.64
2022-08-10T19:33:10.536Z,964.52
2022-08-10T19:48:12.804Z,964.59
2022-08-10T20:03:15.058Z,964.31
2022-08-10T20:18:17.261Z,964.26
2022-08-10T20:33:19.434Z,964
2022-08-10T20:48:21.671Z,963.96
2022-08-10T21:03:24.884Z,963.8
2022-08-10T21:18:33.537Z,963.71
2022-08-10T21:33:36.958Z,963.63
2022-08-10T21:48:39.145Z,963.45
2022-08-10T22:03:44.150Z,963.37
2022-08-10T22:19:02.118Z,963.17
2022-08-10T22:34:05.365Z,963.01
2022-08-10T22:49:07.755Z,962.86
2022-08-10T23:04:09.951Z,962.8
2022-08-10T23:19:14.055Z,962.71
2022-08-10T23:34:16.306Z,962.53
2022-08-10T23:49:18.499Z,962.46
